sensor_id;sensor_type;location;lat;lon;timestamp;P1;durP1;ratioP1;P2;durP2;ratioP2
76373;SDS011;65197;50.164;8.012;2023-03-19T00:00:39;2.55;;;1.48;;
76373;SDS011;65197;50.164;8.012;2023-03-19T00:03:05;3.65;;;1.83;;
76373;SDS011;65197;50.164;8.012;2023-03-19T00:05:30;7.43;;;2.67;;
76373;SDS011;65197;50.164;8.012;2023-03-19T00:07:55;4.82;;;1.58;;
76373;SDS011;65197;50.164;8.012;2023-03-19T00:10:21;3.33;;;1.80;;
76373;SDS011;65197;50.164;8.012;2023-03-19T00:12:46;3.30;;;1.83;;
76373;SDS011;65197;50.164;8.012;2023-03-19T00:15:12;3.53;;;1.60;;
76373;SDS011;65197;50.164;8.012;2023-03-19T00:17:38;3.80;;;1.65;;
76373;SDS011;65197;50.164;8.012;2023-03-19T00:20:04;5.05;;;1.88;;
76373;SDS011;65197;50.164;8.012;2023-03-19T00:22:30;3.75;;;1.80;;
76373;SDS011;65197;50.164;8.012;2023-03-19T00:24:55;2.53;;;1.60;;
76373;SDS011;65197;50.164;8.012;2023-03-19T00:27:21;3.33;;;1.80;;
76373;SDS011;65197;50.164;8.012;2023-03-19T00:29:46;3.97;;;1.70;;
76373;SDS011;65197;50.164;8.012;2023-03-19T00:32:12;5.00;;;1.80;;
76373;SDS011;65197;50.164;8.012;2023-03-19T00:34:38;2.90;;;1.70;;
76373;SDS011;65197;50.164;8.012;2023-03-19T00:37:04;3.85;;;1.60;;
76373;SDS011;65197;50.164;8.012;2023-03-19T00:39:29;3.40;;;1.88;;
76373;SDS011;65197;50.164;8.012;2023-03-19T00:41:54;5.38;;;2.70;;
76373;SDS011;65197;50.164;8.012;2023-03-19T00:44:20;3.58;;;1.85;;
76373;SDS011;65197;50.164;8.012;2023-03-19T00:46:45;3.70;;;2.00;;
76373;SDS011;65197;50.164;8.012;2023-03-19T00:49:11;2.70;;;1.50;;
76373;SDS011;65197;50.164;8.012;2023-03-19T00:51:36;5.72;;;2.08;;
76373;SDS011;65197;50.164;8.012;2023-03-19T00:54:02;2.83;;;1.90;;
76373;SDS011;65197;50.164;8.012;2023-03-19T00:56:27;2.78;;;1.55;;
76373;SDS011;65197;50.164;8.012;2023-03-19T00:58:52;3.00;;;1.50;;
76373;SDS011;65197;50.164;8.012;2023-03-19T01:01:20;2.22;;;1.60;;
76373;SDS011;65197;50.164;8.012;2023-03-19T01:03:46;3.20;;;1.60;;
76373;SDS011;65197;50.164;8.012;2023-03-19T01:06:11;4.07;;;1.63;;
76373;SDS011;65197;50.164;8.012;2023-03-19T01:08:37;2.97;;;1.75;;
76373;SDS011;65197;50.164;8.012;2023-03-19T01:11:03;3.83;;;1.85;;
76373;SDS011;65197;50.164;8.012;2023-03-19T01:13:30;3.13;;;1.50;;
76373;SDS011;65197;50.164;8.012;2023-03-19T01:15:56;4.40;;;1.88;;
76373;SDS011;65197;50.164;8.012;2023-03-19T01:18:21;2.38;;;1.58;;
76373;SDS011;65197;50.164;8.012;2023-03-19T01:20:47;3.90;;;1.70;;
76373;SDS011;65197;50.164;8.012;2023-03-19T01:23:12;3.22;;;1.80;;
76373;SDS011;65197;50.164;8.012;2023-03-19T01:25:37;4.03;;;1.63;;
76373;SDS011;65197;50.164;8.012;2023-03-19T01:28:03;4.75;;;1.70;;
76373;SDS011;65197;50.164;8.012;2023-03-19T01:30:29;3.40;;;1.58;;
76373;SDS011;65197;50.164;8.012;2023-03-19T01:32:54;4.13;;;1.63;;
76373;SDS011;65197;50.164;8.012;2023-03-19T01:35:20;2.70;;;1.80;;
76373;SDS011;65197;50.164;8.012;2023-03-19T01:37:46;5.45;;;1.80;;
76373;SDS011;65197;50.164;8.012;2023-03-19T01:40:12;4.70;;;1.70;;
76373;SDS011;65197;50.164;8.012;2023-03-19T01:42:55;4.97;;;1.60;;
76373;SDS011;65197;50.164;8.012;2023-03-19T01:45:37;4.50;;;1.73;;
76373;SDS011;65197;50.164;8.012;2023-03-19T01:48:05;3.85;;;1.90;;
76373;SDS011;65197;50.164;8.012;2023-03-19T01:50:39;2.75;;;1.75;;
76373;SDS011;65197;50.164;8.012;2023-03-19T01:53:07;3.13;;;1.75;;
76373;SDS011;65197;50.164;8.012;2023-03-19T01:58:01;3.55;;;2.25;;
76373;SDS011;65197;50.164;8.012;2023-03-19T02:02:57;5.57;;;2.00;;
76373;SDS011;65197;50.164;8.012;2023-03-19T02:05:24;4.07;;;2.63;;
76373;SDS011;65197;50.164;8.012;2023-03-19T02:07:52;3.63;;;2.20;;
76373;SDS011;65197;50.164;8.012;2023-03-19T02:10:21;5.72;;;1.90;;
76373;SDS011;65197;50.164;8.012;2023-03-19T02:12:47;2.83;;;1.60;;
76373;SDS011;65197;50.164;8.012;2023-03-19T02:15:13;4.25;;;2.00;;
76373;SDS011;65197;50.164;8.012;2023-03-19T02:17:39;4.10;;;1.58;;
76373;SDS011;65197;50.164;8.012;2023-03-19T02:23:03;3.50;;;1.80;;
76373;SDS011;65197;50.164;8.012;2023-03-19T02:25:39;3.72;;;1.83;;
76373;SDS011;65197;50.164;8.012;2023-03-19T02:28:18;4.00;;;1.60;;
76373;SDS011;65197;50.164;8.012;2023-03-19T02:30:46;2.65;;;1.85;;
76373;SDS011;65197;50.164;8.012;2023-03-19T02:33:13;4.43;;;1.80;;
76373;SDS011;65197;50.164;8.012;2023-03-19T02:35:40;3.50;;;1.70;;
76373;SDS011;65197;50.164;8.012;2023-03-19T02:38:07;2.97;;;1.63;;
76373;SDS011;65197;50.164;8.012;2023-03-19T02:40:37;2.80;;;1.88;;
76373;SDS011;65197;50.164;8.012;2023-03-19T02:43:07;3.03;;;1.80;;
76373;SDS011;65197;50.164;8.012;2023-03-19T02:45:33;4.03;;;1.88;;
76373;SDS011;65197;50.164;8.012;2023-03-19T02:47:58;5.50;;;1.90;;
76373;SDS011;65197;50.164;8.012;2023-03-19T02:50:24;2.60;;;1.75;;
76373;SDS011;65197;50.164;8.012;2023-03-19T02:52:50;3.03;;;1.83;;
76373;SDS011;65197;50.164;8.012;2023-03-19T02:55:15;2.97;;;1.80;;
76373;SDS011;65197;50.164;8.012;2023-03-19T02:57:42;3.15;;;1.95;;
76373;SDS011;65197;50.164;8.012;2023-03-19T03:00:08;3.50;;;1.67;;
76373;SDS011;65197;50.164;8.012;2023-03-19T03:02:34;4.78;;;2.80;;
76373;SDS011;65197;50.164;8.012;2023-03-19T03:05:00;4.72;;;2.00;;
76373;SDS011;65197;50.164;8.012;2023-03-19T03:07:25;3.47;;;2.00;;
76373;SDS011;65197;50.164;8.012;2023-03-19T03:09:51;4.00;;;1.83;;
76373;SDS011;65197;50.164;8.012;2023-03-19T03:12:17;5.25;;;1.95;;
76373;SDS011;65197;50.164;8.012;2023-03-19T03:14:42;3.08;;;1.50;;
76373;SDS011;65197;50.164;8.012;2023-03-19T03:17:07;2.92;;;1.80;;
76373;SDS011;65197;50.164;8.012;2023-03-19T03:19:33;3.28;;;2.00;;
76373;SDS011;65197;50.164;8.012;2023-03-19T03:21:59;3.03;;;1.80;;
76373;SDS011;65197;50.164;8.012;2023-03-19T03:24:25;3.78;;;2.25;;
76373;SDS011;65197;50.164;8.012;2023-03-19T03:26:51;4.78;;;2.10;;
76373;SDS011;65197;50.164;8.012;2023-03-19T03:29:16;3.47;;;1.80;;
76373;SDS011;65197;50.164;8.012;2023-03-19T03:31:42;4.28;;;2.05;;
76373;SDS011;65197;50.164;8.012;2023-03-19T03:34:07;6.18;;;2.58;;
76373;SDS011;65197;50.164;8.012;2023-03-19T03:36:33;3.75;;;2.10;;
76373;SDS011;65197;50.164;8.012;2023-03-19T03:38:58;4.63;;;1.98;;
76373;SDS011;65197;50.164;8.012;2023-03-19T03:41:24;3.72;;;1.98;;
76373;SDS011;65197;50.164;8.012;2023-03-19T03:43:49;5.47;;;2.20;;
76373;SDS011;65197;50.164;8.012;2023-03-19T03:46:15;4.55;;;2.03;;
76373;SDS011;65197;50.164;8.012;2023-03-19T03:48:40;2.88;;;2.00;;
76373;SDS011;65197;50.164;8.012;2023-03-19T03:51:06;3.05;;;1.88;;
76373;SDS011;65197;50.164;8.012;2023-03-19T03:53:31;4.50;;;1.92;;
76373;SDS011;65197;50.164;8.012;2023-03-19T03:55:57;3.95;;;2.35;;
76373;SDS011;65197;50.164;8.012;2023-03-19T03:58:22;4.25;;;2.00;;
76373;SDS011;65197;50.164;8.012;2023-03-19T04:00:48;4.53;;;2.13;;
76373;SDS011;65197;50.164;8.012;2023-03-19T04:03:13;4.47;;;2.10;;
76373;SDS011;65197;50.164;8.012;2023-03-19T04:05:39;3.35;;;2.10;;
76373;SDS011;65197;50.164;8.012;2023-03-19T04:08:05;3.67;;;1.98;;
76373;SDS011;65197;50.164;8.012;2023-03-19T04:10:31;4.47;;;1.85;;
76373;SDS011;65197;50.164;8.012;2023-03-19T04:12:59;4.28;;;1.95;;
76373;SDS011;65197;50.164;8.012;2023-03-19T04:15:25;5.45;;;2.35;;
76373;SDS011;65197;50.164;8.012;2023-03-19T04:17:50;5.32;;;2.20;;
76373;SDS011;65197;50.164;8.012;2023-03-19T04:20:16;3.33;;;1.90;;
76373;SDS011;65197;50.164;8.012;2023-03-19T04:22:42;4.50;;;2.30;;
76373;SDS011;65197;50.164;8.012;2023-03-19T04:25:08;2.95;;;2.00;;
76373;SDS011;65197;50.164;8.012;2023-03-19T04:27:34;4.05;;;1.88;;
76373;SDS011;65197;50.164;8.012;2023-03-19T04:29:59;4.88;;;2.33;;
76373;SDS011;65197;50.164;8.012;2023-03-19T04:32:25;3.75;;;2.50;;
76373;SDS011;65197;50.164;8.012;2023-03-19T04:34:51;5.28;;;2.20;;
76373;SDS011;65197;50.164;8.012;2023-03-19T04:37:16;7.93;;;3.08;;
76373;SDS011;65197;50.164;8.012;2023-03-19T04:39:42;4.03;;;2.00;;
76373;SDS011;65197;50.164;8.012;2023-03-19T04:42:08;6.47;;;2.45;;
76373;SDS011;65197;50.164;8.012;2023-03-19T04:44:34;4.20;;;2.20;;
76373;SDS011;65197;50.164;8.012;2023-03-19T04:46:59;2.72;;;1.90;;
76373;SDS011;65197;50.164;8.012;2023-03-19T04:49:25;5.00;;;2.88;;
76373;SDS011;65197;50.164;8.012;2023-03-19T04:51:51;3.13;;;2.30;;
76373;SDS011;65197;50.164;8.012;2023-03-19T04:54:16;4.90;;;2.50;;
76373;SDS011;65197;50.164;8.012;2023-03-19T04:56:41;4.18;;;2.60;;
76373;SDS011;65197;50.164;8.012;2023-03-19T04:59:07;5.07;;;2.60;;
76373;SDS011;65197;50.164;8.012;2023-03-19T05:01:32;5.63;;;2.38;;
76373;SDS011;65197;50.164;8.012;2023-03-19T05:03:58;5.03;;;2.42;;
76373;SDS011;65197;50.164;8.012;2023-03-19T05:06:24;4.70;;;2.60;;
76373;SDS011;65197;50.164;8.012;2023-03-19T05:08:51;3.92;;;2.50;;
76373;SDS011;65197;50.164;8.012;2023-03-19T05:11:16;5.13;;;2.25;;
76373;SDS011;65197;50.164;8.012;2023-03-19T05:13:41;12.35;;;2.60;;
76373;SDS011;65197;50.164;8.012;2023-03-19T05:16:07;5.70;;;2.60;;
76373;SDS011;65197;50.164;8.012;2023-03-19T05:18:33;5.47;;;2.40;;
76373;SDS011;65197;50.164;8.012;2023-03-19T05:20:59;3.53;;;2.03;;
76373;SDS011;65197;50.164;8.012;2023-03-19T05:23:24;5.03;;;2.25;;
76373;SDS011;65197;50.164;8.012;2023-03-19T05:25:49;6.85;;;2.95;;
76373;SDS011;65197;50.164;8.012;2023-03-19T05:28:15;4.38;;;2.20;;
76373;SDS011;65197;50.164;8.012;2023-03-19T05:30:41;3.80;;;1.80;;
76373;SDS011;65197;50.164;8.012;2023-03-19T05:33:07;4.47;;;2.22;;
76373;SDS011;65197;50.164;8.012;2023-03-19T05:35:33;3.45;;;1.80;;
76373;SDS011;65197;50.164;8.012;2023-03-19T05:37:59;5.25;;;2.08;;
76373;SDS011;65197;50.164;8.012;2023-03-19T05:40:25;3.78;;;2.35;;
76373;SDS011;65197;50.164;8.012;2023-03-19T05:42:50;3.47;;;1.98;;
76373;SDS011;65197;50.164;8.012;2023-03-19T05:45:15;3.85;;;1.98;;
76373;SDS011;65197;50.164;8.012;2023-03-19T05:47:41;2.63;;;1.80;;
76373;SDS011;65197;50.164;8.012;2023-03-19T05:50:09;2.15;;;1.73;;
76373;SDS011;65197;50.164;8.012;2023-03-19T05:52:36;2.95;;;1.95;;
76373;SDS011;65197;50.164;8.012;2023-03-19T05:55:01;4.22;;;2.55;;
76373;SDS011;65197;50.164;8.012;2023-03-19T05:57:28;6.93;;;2.10;;
76373;SDS011;65197;50.164;8.012;2023-03-19T05:59:54;5.68;;;2.20;;
76373;SDS011;65197;50.164;8.012;2023-03-19T06:02:19;3.22;;;1.70;;
76373;SDS011;65197;50.164;8.012;2023-03-19T06:04:45;2.00;;;1.50;;
76373;SDS011;65197;50.164;8.012;2023-03-19T06:07:10;4.07;;;1.80;;
76373;SDS011;65197;50.164;8.012;2023-03-19T06:09:35;5.82;;;2.10;;
76373;SDS011;65197;50.164;8.012;2023-03-19T06:12:01;4.00;;;2.00;;
76373;SDS011;65197;50.164;8.012;2023-03-19T06:14:26;2.92;;;2.00;;
76373;SDS011;65197;50.164;8.012;2023-03-19T06:16:52;5.15;;;2.58;;
76373;SDS011;65197;50.164;8.012;2023-03-19T06:19:17;2.30;;;1.70;;
76373;SDS011;65197;50.164;8.012;2023-03-19T06:21:42;6.40;;;1.98;;
76373;SDS011;65197;50.164;8.012;2023-03-19T06:24:08;2.53;;;1.60;;
76373;SDS011;65197;50.164;8.012;2023-03-19T06:26:33;4.18;;;2.00;;
76373;SDS011;65197;50.164;8.012;2023-03-19T06:28:59;4.00;;;1.65;;
76373;SDS011;65197;50.164;8.012;2023-03-19T06:31:24;3.05;;;1.60;;
76373;SDS011;65197;50.164;8.012;2023-03-19T06:33:51;2.33;;;1.65;;
76373;SDS011;65197;50.164;8.012;2023-03-19T06:36:17;2.40;;;1.40;;
76373;SDS011;65197;50.164;8.012;2023-03-19T06:38:42;2.22;;;1.45;;
76373;SDS011;65197;50.164;8.012;2023-03-19T06:41:08;2.45;;;1.20;;
76373;SDS011;65197;50.164;8.012;2023-03-19T06:43:33;3.78;;;1.67;;
76373;SDS011;65197;50.164;8.012;2023-03-19T06:46:01;2.15;;;1.48;;
76373;SDS011;65197;50.164;8.012;2023-03-19T06:48:28;1.55;;;1.20;;
76373;SDS011;65197;50.164;8.012;2023-03-19T06:50:53;2.13;;;1.40;;
76373;SDS011;65197;50.164;8.012;2023-03-19T06:53:18;2.53;;;1.48;;
76373;SDS011;65197;50.164;8.012;2023-03-19T06:55:44;3.58;;;1.35;;
76373;SDS011;65197;50.164;8.012;2023-03-19T06:58:10;3.08;;;1.77;;
76373;SDS011;65197;50.164;8.012;2023-03-19T07:00:36;2.63;;;1.20;;
76373;SDS011;65197;50.164;8.012;2023-03-19T07:03:01;2.28;;;1.20;;
76373;SDS011;65197;50.164;8.012;2023-03-19T07:05:27;2.10;;;1.25;;
76373;SDS011;65197;50.164;8.012;2023-03-19T07:07:52;1.52;;;1.05;;
76373;SDS011;65197;50.164;8.012;2023-03-19T07:10:18;2.78;;;1.40;;
76373;SDS011;65197;50.164;8.012;2023-03-19T07:12:44;1.70;;;1.20;;
76373;SDS011;65197;50.164;8.012;2023-03-19T07:15:09;2.50;;;1.38;;
76373;SDS011;65197;50.164;8.012;2023-03-19T07:17:38;1.95;;;1.30;;
76373;SDS011;65197;50.164;8.012;2023-03-19T07:20:04;1.63;;;1.02;;
76373;SDS011;65197;50.164;8.012;2023-03-19T07:22:30;1.52;;;1.15;;
76373;SDS011;65197;50.164;8.012;2023-03-19T07:24:56;2.15;;;1.10;;
76373;SDS011;65197;50.164;8.012;2023-03-19T07:27:21;2.75;;;1.45;;
76373;SDS011;65197;50.164;8.012;2023-03-19T07:29:47;1.85;;;1.35;;
76373;SDS011;65197;50.164;8.012;2023-03-19T07:32:12;3.33;;;1.35;;
76373;SDS011;65197;50.164;8.012;2023-03-19T07:34:38;2.53;;;1.35;;
76373;SDS011;65197;50.164;8.012;2023-03-19T07:37:03;3.53;;;1.40;;
76373;SDS011;65197;50.164;8.012;2023-03-19T07:39:29;2.00;;;1.10;;
76373;SDS011;65197;50.164;8.012;2023-03-19T07:41:54;1.50;;;1.02;;
76373;SDS011;65197;50.164;8.012;2023-03-19T07:44:19;1.83;;;1.10;;
76373;SDS011;65197;50.164;8.012;2023-03-19T07:46:45;2.70;;;1.30;;
76373;SDS011;65197;50.164;8.012;2023-03-19T07:49:10;2.05;;;1.10;;
76373;SDS011;65197;50.164;8.012;2023-03-19T07:51:36;2.35;;;1.40;;
76373;SDS011;65197;50.164;8.012;2023-03-19T07:54:01;2.08;;;1.08;;
76373;SDS011;65197;50.164;8.012;2023-03-19T07:56:26;3.42;;;1.30;;
76373;SDS011;65197;50.164;8.012;2023-03-19T07:58:52;2.03;;;1.20;;
76373;SDS011;65197;50.164;8.012;2023-03-19T08:01:17;2.10;;;1.17;;
76373;SDS011;65197;50.164;8.012;2023-03-19T08:03:43;2.15;;;1.40;;
76373;SDS011;65197;50.164;8.012;2023-03-19T08:06:08;2.10;;;1.33;;
76373;SDS011;65197;50.164;8.012;2023-03-19T08:08:34;2.22;;;1.20;;
76373;SDS011;65197;50.164;8.012;2023-03-19T08:11:00;2.50;;;1.20;;
76373;SDS011;65197;50.164;8.012;2023-03-19T08:13:26;2.47;;;1.27;;
76373;SDS011;65197;50.164;8.012;2023-03-19T08:15:51;1.80;;;1.27;;
76373;SDS011;65197;50.164;8.012;2023-03-19T08:18:17;3.35;;;1.40;;
76373;SDS011;65197;50.164;8.012;2023-03-19T08:20:46;2.72;;;1.45;;
76373;SDS011;65197;50.164;8.012;2023-03-19T08:23:12;2.42;;;1.77;;
76373;SDS011;65197;50.164;8.012;2023-03-19T08:25:37;3.83;;;1.50;;
76373;SDS011;65197;50.164;8.012;2023-03-19T08:28:03;3.45;;;1.70;;
76373;SDS011;65197;50.164;8.012;2023-03-19T08:30:29;3.20;;;1.95;;
76373;SDS011;65197;50.164;8.012;2023-03-19T08:32:54;2.13;;;1.45;;
76373;SDS011;65197;50.164;8.012;2023-03-19T08:35:20;2.50;;;1.65;;
76373;SDS011;65197;50.164;8.012;2023-03-19T08:37:46;3.72;;;1.50;;
76373;SDS011;65197;50.164;8.012;2023-03-19T08:40:11;2.10;;;1.42;;
76373;SDS011;65197;50.164;8.012;2023-03-19T08:42:37;2.97;;;1.77;;
76373;SDS011;65197;50.164;8.012;2023-03-19T08:45:06;2.67;;;1.80;;
76373;SDS011;65197;50.164;8.012;2023-03-19T08:47:32;2.58;;;1.80;;
76373;SDS011;65197;50.164;8.012;2023-03-19T08:49:57;2.55;;;1.67;;
76373;SDS011;65197;50.164;8.012;2023-03-19T08:52:23;2.20;;;1.40;;
76373;SDS011;65197;50.164;8.012;2023-03-19T08:54:48;3.95;;;2.15;;
76373;SDS011;65197;50.164;8.012;2023-03-19T08:57:14;3.78;;;1.80;;
76373;SDS011;65197;50.164;8.012;2023-03-19T08:59:39;3.25;;;1.80;;
76373;SDS011;65197;50.164;8.012;2023-03-19T09:02:05;3.08;;;1.90;;
76373;SDS011;65197;50.164;8.012;2023-03-19T09:04:31;3.47;;;1.80;;
76373;SDS011;65197;50.164;8.012;2023-03-19T09:07:01;4.00;;;1.90;;
76373;SDS011;65197;50.164;8.012;2023-03-19T09:09:26;6.68;;;1.98;;
76373;SDS011;65197;50.164;8.012;2023-03-19T09:11:51;3.42;;;2.55;;
76373;SDS011;65197;50.164;8.012;2023-03-19T09:14:17;3.38;;;1.80;;
76373;SDS011;65197;50.164;8.012;2023-03-19T09:16:44;4.07;;;1.90;;
76373;SDS011;65197;50.164;8.012;2023-03-19T09:19:10;5.18;;;2.00;;
76373;SDS011;65197;50.164;8.012;2023-03-19T09:21:35;3.97;;;2.05;;
76373;SDS011;65197;50.164;8.012;2023-03-19T09:24:01;2.60;;;2.10;;
76373;SDS011;65197;50.164;8.012;2023-03-19T09:26:27;3.65;;;2.55;;
76373;SDS011;65197;50.164;8.012;2023-03-19T09:28:52;4.35;;;2.30;;
76373;SDS011;65197;50.164;8.012;2023-03-19T09:31:18;4.22;;;2.20;;
76373;SDS011;65197;50.164;8.012;2023-03-19T09:33:43;5.93;;;2.47;;
76373;SDS011;65197;50.164;8.012;2023-03-19T09:36:09;5.03;;;2.60;;
76373;SDS011;65197;50.164;8.012;2023-03-19T09:38:34;4.15;;;2.35;;
76373;SDS011;65197;50.164;8.012;2023-03-19T09:46:21;4.05;;;2.58;;
76373;SDS011;65197;50.164;8.012;2023-03-19T09:48:56;4.32;;;2.40;;
76373;SDS011;65197;50.164;8.012;2023-03-19T09:51:29;4.40;;;2.55;;
76373;SDS011;65197;50.164;8.012;2023-03-19T09:54:07;3.47;;;2.80;;
76373;SDS011;65197;50.164;8.012;2023-03-19T09:56:45;4.70;;;1.98;;
76373;SDS011;65197;50.164;8.012;2023-03-19T09:59:10;3.85;;;2.42;;
76373;SDS011;65197;50.164;8.012;2023-03-19T10:01:36;5.70;;;2.40;;
76373;SDS011;65197;50.164;8.012;2023-03-19T10:04:08;4.07;;;2.40;;
76373;SDS011;65197;50.164;8.012;2023-03-19T10:06:49;3.65;;;2.20;;
76373;SDS011;65197;50.164;8.012;2023-03-19T10:17:39;4.43;;;2.92;;
76373;SDS011;65197;50.164;8.012;2023-03-19T10:23:21;4.22;;;2.22;;
76373;SDS011;65197;50.164;8.012;2023-03-19T10:26:08;3.50;;;2.00;;
76373;SDS011;65197;50.164;8.012;2023-03-19T10:28:36;2.63;;;1.85;;
76373;SDS011;65197;50.164;8.012;2023-03-19T10:31:22;3.78;;;2.10;;
76373;SDS011;65197;50.164;8.012;2023-03-19T10:36:47;3.20;;;1.98;;
76373;SDS011;65197;50.164;8.012;2023-03-19T10:39:14;3.97;;;2.53;;
76373;SDS011;65197;50.164;8.012;2023-03-19T10:42:03;3.33;;;2.20;;
76373;SDS011;65197;50.164;8.012;2023-03-19T10:44:47;3.40;;;1.75;;
76373;SDS011;65197;50.164;8.012;2023-03-19T10:47:16;3.15;;;1.70;;
76373;SDS011;65197;50.164;8.012;2023-03-19T10:49:44;3.47;;;1.73;;
76373;SDS011;65197;50.164;8.012;2023-03-19T10:55:13;5.10;;;3.10;;
76373;SDS011;65197;50.164;8.012;2023-03-19T10:57:41;2.75;;;1.90;;
76373;SDS011;65197;50.164;8.012;2023-03-19T11:00:17;2.65;;;1.92;;
76373;SDS011;65197;50.164;8.012;2023-03-19T11:02:50;3.05;;;1.75;;
76373;SDS011;65197;50.164;8.012;2023-03-19T11:10:26;2.90;;;1.88;;
76373;SDS011;65197;50.164;8.012;2023-03-19T11:15:30;3.95;;;2.40;;
76373;SDS011;65197;50.164;8.012;2023-03-19T11:18:01;3.35;;;2.13;;
76373;SDS011;65197;50.164;8.012;2023-03-19T11:20:33;3.55;;;1.73;;
76373;SDS011;65197;50.164;8.012;2023-03-19T11:23:02;2.55;;;1.60;;
76373;SDS011;65197;50.164;8.012;2023-03-19T11:25:37;3.63;;;1.70;;
76373;SDS011;65197;50.164;8.012;2023-03-19T11:28:11;2.97;;;1.67;;
76373;SDS011;65197;50.164;8.012;2023-03-19T11:33:10;4.57;;;2.60;;
76373;SDS011;65197;50.164;8.012;2023-03-19T11:38:21;4.28;;;2.80;;
76373;SDS011;65197;50.164;8.012;2023-03-19T11:41:01;5.57;;;2.70;;
76373;SDS011;65197;50.164;8.012;2023-03-19T11:54:33;2.90;;;1.85;;
76373;SDS011;65197;50.164;8.012;2023-03-19T11:57:11;2.83;;;1.70;;
76373;SDS011;65197;50.164;8.012;2023-03-19T12:00:27;2.22;;;1.80;;
76373;SDS011;65197;50.164;8.012;2023-03-19T12:05:33;2.65;;;1.70;;
76373;SDS011;65197;50.164;8.012;2023-03-19T12:13:27;7.72;;;3.28;;
76373;SDS011;65197;50.164;8.012;2023-03-19T12:16:10;3.92;;;2.10;;
76373;SDS011;65197;50.164;8.012;2023-03-19T12:29:23;5.03;;;2.17;;
76373;SDS011;65197;50.164;8.012;2023-03-19T12:32:11;4.78;;;2.35;;
76373;SDS011;65197;50.164;8.012;2023-03-19T12:34:49;4.68;;;2.97;;
76373;SDS011;65197;50.164;8.012;2023-03-19T12:37:27;4.82;;;3.08;;
76373;SDS011;65197;50.164;8.012;2023-03-19T12:42:51;3.78;;;2.80;;
76373;SDS011;65197;50.164;8.012;2023-03-19T12:45:32;4.20;;;3.10;;
76373;SDS011;65197;50.164;8.012;2023-03-19T12:48:17;4.78;;;3.67;;
76373;SDS011;65197;50.164;8.012;2023-03-19T12:50:49;5.28;;;3.63;;
76373;SDS011;65197;50.164;8.012;2023-03-19T12:53:29;4.30;;;3.20;;
76373;SDS011;65197;50.164;8.012;2023-03-19T12:56:11;4.35;;;3.17;;
76373;SDS011;65197;50.164;8.012;2023-03-19T13:07:21;5.30;;;3.92;;
76373;SDS011;65197;50.164;8.012;2023-03-19T13:10:02;6.03;;;3.70;;
76373;SDS011;65197;50.164;8.012;2023-03-19T13:12:33;5.28;;;3.60;;
76373;SDS011;65197;50.164;8.012;2023-03-19T13:20:48;4.50;;;3.35;;
76373;SDS011;65197;50.164;8.012;2023-03-19T13:23:24;4.72;;;3.38;;
76373;SDS011;65197;50.164;8.012;2023-03-19T13:25:56;4.00;;;2.90;;
76373;SDS011;65197;50.164;8.012;2023-03-19T13:28:30;4.53;;;3.20;;
76373;SDS011;65197;50.164;8.012;2023-03-19T13:31:01;4.80;;;3.25;;
76373;SDS011;65197;50.164;8.012;2023-03-19T13:33:29;4.18;;;2.92;;
76373;SDS011;65197;50.164;8.012;2023-03-19T13:35:55;4.75;;;2.95;;
76373;SDS011;65197;50.164;8.012;2023-03-19T13:38:25;4.50;;;2.88;;
76373;SDS011;65197;50.164;8.012;2023-03-19T13:40:52;4.75;;;2.80;;
76373;SDS011;65197;50.164;8.012;2023-03-19T13:45:52;6.25;;;2.50;;
76373;SDS011;65197;50.164;8.012;2023-03-19T13:50:59;4.50;;;2.40;;
76373;SDS011;65197;50.164;8.012;2023-03-19T13:56:00;6.10;;;3.17;;
76373;SDS011;65197;50.164;8.012;2023-03-19T13:58:43;4.93;;;3.10;;
76373;SDS011;65197;50.164;8.012;2023-03-19T14:03:59;3.00;;;2.35;;
76373;SDS011;65197;50.164;8.012;2023-03-19T14:06:40;4.60;;;2.50;;
76373;SDS011;65197;50.164;8.012;2023-03-19T14:14:43;3.83;;;2.45;;
76373;SDS011;65197;50.164;8.012;2023-03-19T14:17:13;3.83;;;2.75;;
76373;SDS011;65197;50.164;8.012;2023-03-19T14:28:56;3.22;;;2.30;;
76373;SDS011;65197;50.164;8.012;2023-03-19T14:34:33;4.80;;;2.88;;
76373;SDS011;65197;50.164;8.012;2023-03-19T14:37:22;3.53;;;2.13;;
76373;SDS011;65197;50.164;8.012;2023-03-19T14:40:08;3.30;;;2.35;;
76373;SDS011;65197;50.164;8.012;2023-03-19T14:42:38;2.78;;;2.30;;
76373;SDS011;65197;50.164;8.012;2023-03-19T14:51:07;3.88;;;2.45;;
76373;SDS011;65197;50.164;8.012;2023-03-19T14:54:18;4.32;;;2.60;;
76373;SDS011;65197;50.164;8.012;2023-03-19T14:56:51;3.45;;;2.63;;
76373;SDS011;65197;50.164;8.012;2023-03-19T14:59:16;4.88;;;2.70;;
76373;SDS011;65197;50.164;8.012;2023-03-19T15:01:43;3.63;;;2.90;;
76373;SDS011;65197;50.164;8.012;2023-03-19T15:04:14;5.00;;;3.10;;
76373;SDS011;65197;50.164;8.012;2023-03-19T15:06:43;3.38;;;2.95;;
76373;SDS011;65197;50.164;8.012;2023-03-19T15:09:21;4.75;;;2.83;;
76373;SDS011;65197;50.164;8.012;2023-03-19T15:14:45;4.95;;;3.50;;
76373;SDS011;65197;50.164;8.012;2023-03-19T15:17:33;4.25;;;2.70;;
76373;SDS011;65197;50.164;8.012;2023-03-19T15:20:01;4.18;;;2.78;;
76373;SDS011;65197;50.164;8.012;2023-03-19T15:22:37;4.32;;;2.60;;
76373;SDS011;65197;50.164;8.012;2023-03-19T15:25:10;3.55;;;2.70;;
76373;SDS011;65197;50.164;8.012;2023-03-19T15:27:37;4.20;;;3.80;;
76373;SDS011;65197;50.164;8.012;2023-03-19T15:30:14;4.07;;;3.67;;
76373;SDS011;65197;50.164;8.012;2023-03-19T15:32:47;3.88;;;2.78;;
76373;SDS011;65197;50.164;8.012;2023-03-19T15:35:13;4.38;;;2.88;;
76373;SDS011;65197;50.164;8.012;2023-03-19T15:37:42;3.63;;;3.05;;
76373;SDS011;65197;50.164;8.012;2023-03-19T15:40:14;5.63;;;3.00;;
76373;SDS011;65197;50.164;8.012;2023-03-19T15:42:44;4.15;;;2.70;;
76373;SDS011;65197;50.164;8.012;2023-03-19T15:45:12;4.93;;;3.05;;
76373;SDS011;65197;50.164;8.012;2023-03-19T15:50:43;3.72;;;3.13;;
76373;SDS011;65197;50.164;8.012;2023-03-19T15:55:39;5.05;;;3.08;;
76373;SDS011;65197;50.164;8.012;2023-03-19T15:58:06;5.32;;;3.60;;
76373;SDS011;65197;50.164;8.012;2023-03-19T16:00:36;4.80;;;3.28;;
76373;SDS011;65197;50.164;8.012;2023-03-19T16:03:03;3.88;;;2.83;;
76373;SDS011;65197;50.164;8.012;2023-03-19T16:05:31;5.20;;;3.20;;
76373;SDS011;65197;50.164;8.012;2023-03-19T16:07:58;4.50;;;3.30;;
76373;SDS011;65197;50.164;8.012;2023-03-19T16:10:33;4.95;;;3.55;;
76373;SDS011;65197;50.164;8.012;2023-03-19T16:13:00;3.80;;;3.00;;
76373;SDS011;65197;50.164;8.012;2023-03-19T16:18:08;4.75;;;3.10;;
76373;SDS011;65197;50.164;8.012;2023-03-19T16:21:03;3.90;;;3.30;;
76373;SDS011;65197;50.164;8.012;2023-03-19T16:23:33;4.85;;;3.35;;
76373;SDS011;65197;50.164;8.012;2023-03-19T16:26:20;5.38;;;3.00;;
76373;SDS011;65197;50.164;8.012;2023-03-19T16:31:42;4.45;;;3.30;;
76373;SDS011;65197;50.164;8.012;2023-03-19T16:34:23;4.45;;;3.75;;
76373;SDS011;65197;50.164;8.012;2023-03-19T16:36:49;4.82;;;3.20;;
76373;SDS011;65197;50.164;8.012;2023-03-19T16:39:31;5.28;;;3.00;;
76373;SDS011;65197;50.164;8.012;2023-03-19T16:44:33;4.50;;;3.65;;
76373;SDS011;65197;50.164;8.012;2023-03-19T16:47:13;3.97;;;3.05;;
76373;SDS011;65197;50.164;8.012;2023-03-19T16:49:39;4.57;;;3.28;;
76373;SDS011;65197;50.164;8.012;2023-03-19T16:52:05;4.72;;;3.47;;
76373;SDS011;65197;50.164;8.012;2023-03-19T16:54:45;4.65;;;3.28;;
76373;SDS011;65197;50.164;8.012;2023-03-19T16:57:12;4.43;;;3.13;;
76373;SDS011;65197;50.164;8.012;2023-03-19T16:59:40;4.10;;;3.22;;
76373;SDS011;65197;50.164;8.012;2023-03-19T17:02:09;5.70;;;3.42;;
76373;SDS011;65197;50.164;8.012;2023-03-19T17:04:38;4.80;;;3.08;;
76373;SDS011;65197;50.164;8.012;2023-03-19T17:07:04;4.15;;;3.00;;
76373;SDS011;65197;50.164;8.012;2023-03-19T17:09:30;3.40;;;3.10;;
76373;SDS011;65197;50.164;8.012;2023-03-19T17:11:56;3.45;;;3.08;;
76373;SDS011;65197;50.164;8.012;2023-03-19T17:14:21;5.43;;;3.05;;
76373;SDS011;65197;50.164;8.012;2023-03-19T17:16:47;5.72;;;3.40;;